sensor_id;sensor_type;location;lat;lon;timestamp;temperature;humidity
10282;DHT22;5186;59.472;18.048;2023-04-03T00:00:09;-1.30;99.90
10282;DHT22;5186;59.472;18.048;2023-04-03T00:02:35;-1.30;99.90
10282;DHT22;5186;59.472;18.048;2023-04-03T00:05:01;-1.30;99.90
10282;DHT22;5186;59.472;18.048;2023-04-03T00:07:26;-1.40;99.90
10282;DHT22;5186;59.472;18.048;2023-04-03T00:09:52;-1.40;99.90
10282;DHT22;5186;59.472;18.048;2023-04-03T00:12:17;-1.40;99.90
10282;DHT22;5186;59.472;18.048;2023-04-03T00:14:43;-1.40;99.90
10282;DHT22;5186;59.472;18.048;2023-04-03T00:17:09;-1.50;99.90
10282;DHT22;5186;59.472;18.048;2023-04-03T00:19:34;-1.40;99.90
10282;DHT22;5186;59.472;18.048;2023-04-03T00:22:00;-1.40;99.90
10282;DHT22;5186;59.472;18.048;2023-04-03T00:24:26;-1.40;99.90
10282;DHT22;5186;59.472;18.048;2023-04-03T00:26:51;-1.40;99.90
10282;DHT22;5186;59.472;18.048;2023-04-03T00:29:17;-1.40;99.90
10282;DHT22;5186;59.472;18.048;2023-04-03T00:31:42;-1.50;99.90
10282;DHT22;5186;59.472;18.048;2023-04-03T00:34:08;-1.50;99.90
10282;DHT22;5186;59.472;18.048;2023-04-03T00:36:34;-1.50;99.90
10282;DHT22;5186;59.472;18.048;2023-04-03T00:38:59;-1.50;99.90
10282;DHT22;5186;59.472;18.048;2023-04-03T00:41:25;-1.50;99.90
10282;DHT22;5186;59.472;18.048;2023-04-03T00:43:51;-1.50;99.90
10282;DHT22;5186;59.472;18.048;2023-04-03T00:46:17;-1.50;99.90
10282;DHT22;5186;59.472;18.048;2023-04-03T00:48:45;-1.50;99.90
10282;DHT22;5186;59.472;18.048;2023-04-03T00:51:14;-1.50;99.90
10282;DHT22;5186;59.472;18.048;2023-04-03T00:53:46;-1.60;99.90
10282;DHT22;5186;59.472;18.048;2023-04-03T00:56:15;-1.60;99.90
10282;DHT22;5186;59.472;18.048;2023-04-03T00:58:56;-1.60;99.90
10282;DHT22;5186;59.472;18.048;2023-04-03T01:01:26;-1.60;99.90
10282;DHT22;5186;59.472;18.048;2023-04-03T01:03:52;-1.60;99.90
10282;DHT22;5186;59.472;18.048;2023-04-03T01:06:23;-1.60;99.90
10282;DHT22;5186;59.472;18.048;2023-04-03T01:08:50;-1.60;99.90
10282;DHT22;5186;59.472;18.048;2023-04-03T01:11:16;-1.60;99.90
10282;DHT22;5186;59.472;18.048;2023-04-03T01:13:42;-1.70;99.90
10282;DHT22;5186;59.472;18.048;2023-04-03T01:16:08;-1.70;99.90
10282;DHT22;5186;59.472;18.048;2023-04-03T01:18:36;-1.80;99.90
10282;DHT22;5186;59.472;18.048;2023-04-03T01:24:21;-1.70;99.90
10282;DHT22;5186;59.472;18.048;2023-04-03T01:26:49;-1.80;99.90
10282;DHT22;5186;59.472;18.048;2023-04-03T01:29:16;-1.80;99.90
10282;DHT22;5186;59.472;18.048;2023-04-03T01:31:53;-1.80;99.90
10282;DHT22;5186;59.472;18.048;2023-04-03T01:34:20;-1.90;99.90
10282;DHT22;5186;59.472;18.048;2023-04-03T01:36:46;-1.90;99.90
10282;DHT22;5186;59.472;18.048;2023-04-03T01:39:11;-1.90;99.90
10282;DHT22;5186;59.472;18.048;2023-04-03T01:41:37;-2.00;99.90
10282;DHT22;5186;59.472;18.048;2023-04-03T01:44:03;-2.00;99.90
10282;DHT22;5186;59.472;18.048;2023-04-03T01:46:29;-1.90;99.90
10282;DHT22;5186;59.472;18.048;2023-04-03T01:48:55;-2.00;99.90
10282;DHT22;5186;59.472;18.048;2023-04-03T01:51:20;-2.00;99.90
10282;DHT22;5186;59.472;18.048;2023-04-03T01:53:46;-2.00;99.90
10282;DHT22;5186;59.472;18.048;2023-04-03T01:56:12;-2.10;99.90
10282;DHT22;5186;59.472;18.048;2023-04-03T01:58:37;-2.10;99.90
10282;DHT22;5186;59.472;18.048;2023-04-03T02:01:03;-2.10;99.90
10282;DHT22;5186;59.472;18.048;2023-04-03T02:03:29;-2.10;99.90
10282;DHT22;5186;59.472;18.048;2023-04-03T02:05:56;-2.20;99.90
10282;DHT22;5186;59.472;18.048;2023-04-03T02:08:21;-2.20;99.90
10282;DHT22;5186;59.472;18.048;2023-04-03T02:10:48;-2.20;99.90
10282;DHT22;5186;59.472;18.048;2023-04-03T02:13:14;-2.30;99.90
10282;DHT22;5186;59.472;18.048;2023-04-03T02:15:40;-2.30;99.90
10282;DHT22;5186;59.472;18.048;2023-04-03T02:18:06;-2.40;99.90
10282;DHT22;5186;59.472;18.048;2023-04-03T02:20:32;-2.40;99.90
10282;DHT22;5186;59.472;18.048;2023-04-03T02:22:58;-2.40;99.90
10282;DHT22;5186;59.472;18.048;2023-04-03T02:25:24;-2.40;99.90
10282;DHT22;5186;59.472;18.048;2023-04-03T02:27:50;-2.30;99.90
10282;DHT22;5186;59.472;18.048;2023-04-03T02:30:15;-2.40;99.90
10282;DHT22;5186;59.472;18.048;2023-04-03T02:32:42;-2.30;99.90
10282;DHT22;5186;59.472;18.048;2023-04-03T02:35:08;-2.30;99.90
10282;DHT22;5186;59.472;18.048;2023-04-03T02:37:34;-2.30;99.90
10282;DHT22;5186;59.472;18.048;2023-04-03T02:40:00;-2.30;99.90
10282;DHT22;5186;59.472;18.048;2023-04-03T02:42:26;-2.30;99.90
10282;DHT22;5186;59.472;18.048;2023-04-03T02:44:51;-2.30;99.90
10282;DHT22;5186;59.472;18.048;2023-04-03T02:47:17;-2.30;99.90
10282;DHT22;5186;59.472;18.048;2023-04-03T02:49:42;-2.30;99.90
10282;DHT22;5186;59.472;18.048;2023-04-03T02:52:12;-2.30;99.90
10282;DHT22;5186;59.472;18.048;2023-04-03T02:54:37;-2.30;99.90
10282;DHT22;5186;59.472;18.048;2023-04-03T02:57:03;-2.30;99.90
10282;DHT22;5186;59.472;18.048;2023-04-03T02:59:29;-2.40;99.90
10282;DHT22;5186;59.472;18.048;2023-04-03T03:01:54;-2.40;99.90
10282;DHT22;5186;59.472;18.048;2023-04-03T03:04:21;-2.40;99.90
10282;DHT22;5186;59.472;18.048;2023-04-03T03:06:46;-2.40;99.90
10282;DHT22;5186;59.472;18.048;2023-04-03T03:09:12;-2.50;99.90
10282;DHT22;5186;59.472;18.048;2023-04-03T03:11:38;-2.50;99.90
10282;DHT22;5186;59.472;18.048;2023-04-03T03:14:04;-2.50;99.90
10282;DHT22;5186;59.472;18.048;2023-04-03T03:16:29;-2.50;99.90
10282;DHT22;5186;59.472;18.048;2023-04-03T03:18:55;-2.50;99.90
10282;DHT22;5186;59.472;18.048;2023-04-03T03:21:21;-2.50;99.90
10282;DHT22;5186;59.472;18.048;2023-04-03T03:23:46;-2.60;99.90
10282;DHT22;5186;59.472;18.048;2023-04-03T03:26:12;-2.60;99.90
10282;DHT22;5186;59.472;18.048;2023-04-03T03:28:38;-2.50;99.90
10282;DHT22;5186;59.472;18.048;2023-04-03T03:31:05;-2.50;99.90
10282;DHT22;5186;59.472;18.048;2023-04-03T03:33:30;-2.50;99.90
10282;DHT22;5186;59.472;18.048;2023-04-03T03:35:56;-2.40;99.90
10282;DHT22;5186;59.472;18.048;2023-04-03T03:38:23;-2.40;99.90
10282;DHT22;5186;59.472;18.048;2023-04-03T03:40:49;-2.40;99.90
10282;DHT22;5186;59.472;18.048;2023-04-03T03:43:16;-2.50;99.90
10282;DHT22;5186;59.472;18.048;2023-04-03T03:45:42;-2.50;99.90
10282;DHT22;5186;59.472;18.048;2023-04-03T03:48:07;-2.40;99.90
10282;DHT22;5186;59.472;18.048;2023-04-03T03:50:33;-2.40;99.90
10282;DHT22;5186;59.472;18.048;2023-04-03T03:52:59;-2.40;99.90
10282;DHT22;5186;59.472;18.048;2023-04-03T03:55:24;-2.40;99.90
10282;DHT22;5186;59.472;18.048;2023-04-03T03:57:50;-2.50;99.90
10282;DHT22;5186;59.472;18.048;2023-04-03T04:00:16;-2.50;99.90
10282;DHT22;5186;59.472;18.048;2023-04-03T04:02:42;-2.50;99.90
10282;DHT22;5186;59.472;18.048;2023-04-03T04:05:08;-2.50;99.90
10282;DHT22;5186;59.472;18.048;2023-04-03T04:07:34;-2.50;99.90
10282;DHT22;5186;59.472;18.048;2023-04-03T04:09:59;-2.60;99.90
10282;DHT22;5186;59.472;18.048;2023-04-03T04:12:25;-2.50;99.90
10282;DHT22;5186;59.472;18.048;2023-04-03T04:14:51;-2.50;99.90
10282;DHT22;5186;59.472;18.048;2023-04-03T04:17:16;-2.60;99.90
10282;DHT22;5186;59.472;18.048;2023-04-03T04:19:42;-2.60;99.90
10282;DHT22;5186;59.472;18.048;2023-04-03T04:22:08;-2.60;99.90
10282;DHT22;5186;59.472;18.048;2023-04-03T04:24:33;-2.50;99.90
10282;DHT22;5186;59.472;18.048;2023-04-03T04:26:59;-2.50;99.90
10282;DHT22;5186;59.472;18.048;2023-04-03T04:29:24;-2.50;99.90
10282;DHT22;5186;59.472;18.048;2023-04-03T04:31:50;-2.50;99.90
10282;DHT22;5186;59.472;18.048;2023-04-03T04:34:15;-2.50;99.90
10282;DHT22;5186;59.472;18.048;2023-04-03T04:36:41;-2.50;99.90
10282;DHT22;5186;59.472;18.048;2023-04-03T04:39:07;-2.50;99.90
10282;DHT22;5186;59.472;18.048;2023-04-03T04:41:33;-2.50;99.90
10282;DHT22;5186;59.472;18.048;2023-04-03T04:44:00;-2.50;99.90
10282;DHT22;5186;59.472;18.048;2023-04-03T04:46:26;-2.50;99.90
10282;DHT22;5186;59.472;18.048;2023-04-03T04:48:51;-2.60;99.90
10282;DHT22;5186;59.472;18.048;2023-04-03T04:51:17;-2.60;99.90
10282;DHT22;5186;59.472;18.048;2023-04-03T04:53:43;-2.60;99.90
10282;DHT22;5186;59.472;18.048;2023-04-03T04:56:09;-2.60;99.90
10282;DHT22;5186;59.472;18.048;2023-04-03T04:58:36;-2.60;99.90
10282;DHT22;5186;59.472;18.048;2023-04-03T05:01:07;-2.60;99.90
10282;DHT22;5186;59.472;18.048;2023-04-03T05:03:34;-2.50;99.90
10282;DHT22;5186;59.472;18.048;2023-04-03T05:06:00;-2.40;99.90
10282;DHT22;5186;59.472;18.048;2023-04-03T05:08:26;-2.40;99.90
10282;DHT22;5186;59.472;18.048;2023-04-03T05:10:52;-2.30;99.90
10282;DHT22;5186;59.472;18.048;2023-04-03T05:13:18;-2.30;99.90
10282;DHT22;5186;59.472;18.048;2023-04-03T05:15:44;-2.20;99.90
10282;DHT22;5186;59.472;18.048;2023-04-03T05:18:10;-2.30;99.90
10282;DHT22;5186;59.472;18.048;2023-04-03T05:20:36;-2.20;99.90
10282;DHT22;5186;59.472;18.048;2023-04-03T05:23:02;-2.20;99.90
10282;DHT22;5186;59.472;18.048;2023-04-03T05:25:28;-2.20;99.90
10282;DHT22;5186;59.472;18.048;2023-04-03T05:27:54;-2.10;99.90
10282;DHT22;5186;59.472;18.048;2023-04-03T05:30:19;-2.00;99.90
10282;DHT22;5186;59.472;18.048;2023-04-03T05:32:45;-2.00;99.90
10282;DHT22;5186;59.472;18.048;2023-04-03T05:35:11;-2.00;99.90
10282;DHT22;5186;59.472;18.048;2023-04-03T05:37:37;-2.00;99.90
10282;DHT22;5186;59.472;18.048;2023-04-03T05:40:03;-1.90;99.90
10282;DHT22;5186;59.472;18.048;2023-04-03T05:42:29;-1.90;99.90
10282;DHT22;5186;59.472;18.048;2023-04-03T05:44:55;-1.90;99.90
10282;DHT22;5186;59.472;18.048;2023-04-03T05:47:20;-1.80;99.90
10282;DHT22;5186;59.472;18.048;2023-04-03T05:49:46;-1.80;99.90
10282;DHT22;5186;59.472;18.048;2023-04-03T05:52:29;-1.70;99.90
10282;DHT22;5186;59.472;18.048;2023-04-03T05:54:55;-1.70;99.90
10282;DHT22;5186;59.472;18.048;2023-04-03T05:57:21;-1.70;99.90
10282;DHT22;5186;59.472;18.048;2023-04-03T05:59:47;-1.70;99.90
10282;DHT22;5186;59.472;18.048;2023-04-03T06:02:17;-1.60;99.90
10282;DHT22;5186;59.472;18.048;2023-04-03T06:04:44;-1.60;99.90
10282;DHT22;5186;59.472;18.048;2023-04-03T06:07:14;-1.50;99.90
10282;DHT22;5186;59.472;18.048;2023-04-03T06:09:41;-1.50;99.90
10282;DHT22;5186;59.472;18.048;2023-04-03T06:12:06;-1.40;99.90
10282;DHT22;5186;59.472;18.048;2023-04-03T06:14:32;-1.30;99.90
10282;DHT22;5186;59.472;18.048;2023-04-03T06:16:58;-1.40;99.90
10282;DHT22;5186;59.472;18.048;2023-04-03T06:19:23;-1.30;99.90
10282;DHT22;5186;59.472;18.048;2023-04-03T06:21:49;-1.20;99.90
10282;DHT22;5186;59.472;18.048;2023-04-03T06:24:16;-1.20;99.90
10282;DHT22;5186;59.472;18.048;2023-04-03T06:26:42;-1.10;99.90
10282;DHT22;5186;59.472;18.048;2023-04-03T06:29:08;-1.10;99.90
10282;DHT22;5186;59.472;18.048;2023-04-03T06:31:34;-1.00;99.90
10282;DHT22;5186;59.472;18.048;2023-04-03T06:34:02;-0.90;99.90
10282;DHT22;5186;59.472;18.048;2023-04-03T06:36:28;-0.90;99.90
10282;DHT22;5186;59.472;18.048;2023-04-03T06:38:54;-0.80;99.90
10282;DHT22;5186;59.472;18.048;2023-04-03T06:41:20;-0.80;99.90
10282;DHT22;5186;59.472;18.048;2023-04-03T06:43:46;-0.70;99.90
10282;DHT22;5186;59.472;18.048;2023-04-03T06:46:20;-0.60;99.90
10282;DHT22;5186;59.472;18.048;2023-04-03T06:48:47;-0.60;99.90
10282;DHT22;5186;59.472;18.048;2023-04-03T06:51:27;-0.50;99.90
10282;DHT22;5186;59.472;18.048;2023-04-03T06:53:54;-0.40;99.90
10282;DHT22;5186;59.472;18.048;2023-04-03T06:56:21;-0.40;99.90
10282;DHT22;5186;59.472;18.048;2023-04-03T06:58:47;-0.30;99.90
10282;DHT22;5186;59.472;18.048;2023-04-03T07:01:14;-0.20;99.90
10282;DHT22;5186;59.472;18.048;2023-04-03T07:03:41;-0.20;99.90
10282;DHT22;5186;59.472;18.048;2023-04-03T07:06:08;-0.10;99.90
10282;DHT22;5186;59.472;18.048;2023-04-03T07:08:35;-0.10;99.90
10282;DHT22;5186;59.472;18.048;2023-04-03T07:11:01;0.00;99.90
10282;DHT22;5186;59.472;18.048;2023-04-03T07:13:26;0.10;99.90
10282;DHT22;5186;59.472;18.048;2023-04-03T07:15:52;0.10;99.90
10282;DHT22;5186;59.472;18.048;2023-04-03T07:18:18;0.20;99.90
10282;DHT22;5186;59.472;18.048;2023-04-03T07:20:44;0.20;99.90
10282;DHT22;5186;59.472;18.048;2023-04-03T07:23:10;0.30;99.90
10282;DHT22;5186;59.472;18.048;2023-04-03T07:25:37;0.30;99.90
10282;DHT22;5186;59.472;18.048;2023-04-03T07:28:03;0.40;99.90
10282;DHT22;5186;59.472;18.048;2023-04-03T07:30:29;0.40;99.90
10282;DHT22;5186;59.472;18.048;2023-04-03T07:32:54;0.50;99.90
10282;DHT22;5186;59.472;18.048;2023-04-03T07:35:20;0.50;99.90
10282;DHT22;5186;59.472;18.048;2023-04-03T07:37:46;0.50;99.90
10282;DHT22;5186;59.472;18.048;2023-04-03T07:40:12;0.60;99.90
10282;DHT22;5186;59.472;18.048;2023-04-03T07:42:38;0.60;99.90
10282;DHT22;5186;59.472;18.048;2023-04-03T07:45:04;0.70;99.90
10282;DHT22;5186;59.472;18.048;2023-04-03T07:47:30;0.80;99.90
10282;DHT22;5186;59.472;18.048;2023-04-03T07:49:56;0.80;99.90
10282;DHT22;5186;59.472;18.048;2023-04-03T07:52:22;0.90;99.90
10282;DHT22;5186;59.472;18.048;2023-04-03T07:54:48;0.90;99.90
10282;DHT22;5186;59.472;18.048;2023-04-03T07:57:14;1.00;99.90
10282;DHT22;5186;59.472;18.048;2023-04-03T07:59:40;1.00;99.90
10282;DHT22;5186;59.472;18.048;2023-04-03T08:02:11;1.10;99.90
10282;DHT22;5186;59.472;18.048;2023-04-03T08:04:37;1.10;99.90
10282;DHT22;5186;59.472;18.048;2023-04-03T08:07:03;1.20;99.90
10282;DHT22;5186;59.472;18.048;2023-04-03T08:09:29;1.20;99.90
10282;DHT22;5186;59.472;18.048;2023-04-03T08:11:55;1.30;99.90
10282;DHT22;5186;59.472;18.048;2023-04-03T08:14:20;1.30;99.90
10282;DHT22;5186;59.472;18.048;2023-04-03T08:16:47;1.40;99.90
10282;DHT22;5186;59.472;18.048;2023-04-03T08:19:14;1.40;99.90
10282;DHT22;5186;59.472;18.048;2023-04-03T08:21:41;1.50;99.90
10282;DHT22;5186;59.472;18.048;2023-04-03T08:24:07;1.50;99.90
10282;DHT22;5186;59.472;18.048;2023-04-03T08:26:33;1.50;99.90
10282;DHT22;5186;59.472;18.048;2023-04-03T08:28:58;1.60;99.90
10282;DHT22;5186;59.472;18.048;2023-04-03T08:31:24;1.60;99.90
10282;DHT22;5186;59.472;18.048;2023-04-03T08:33:49;1.60;99.90
10282;DHT22;5186;59.472;18.048;2023-04-03T08:36:26;1.70;99.90
10282;DHT22;5186;59.472;18.048;2023-04-03T08:38:53;1.70;99.90
10282;DHT22;5186;59.472;18.048;2023-04-03T08:41:33;1.80;99.90
10282;DHT22;5186;59.472;18.048;2023-04-03T08:49:44;1.90;99.90
10282;DHT22;5186;59.472;18.048;2023-04-03T08:52:17;1.90;99.90
10282;DHT22;5186;59.472;18.048;2023-04-03T08:55:02;2.00;99.90
10282;DHT22;5186;59.472;18.048;2023-04-03T08:57:35;2.10;99.90
10282;DHT22;5186;59.472;18.048;2023-04-03T09:00:13;2.10;99.90
10282;DHT22;5186;59.472;18.048;2023-04-03T09:02:43;2.10;99.90
10282;DHT22;5186;59.472;18.048;2023-04-03T09:06:00;2.20;99.90
10282;DHT22;5186;59.472;18.048;2023-04-03T09:10:42;2.30;99.90
10282;DHT22;5186;59.472;18.048;2023-04-03T09:13:13;2.30;99.90
10282;DHT22;5186;59.472;18.048;2023-04-03T09:15:45;2.40;99.90
10282;DHT22;5186;59.472;18.048;2023-04-03T09:18:26;2.50;99.90
10282;DHT22;5186;59.472;18.048;2023-04-03T09:24:00;2.50;99.90
10282;DHT22;5186;59.472;18.048;2023-04-03T09:26:31;2.60;99.90
10282;DHT22;5186;59.472;18.048;2023-04-03T09:29:02;2.60;99.90
10282;DHT22;5186;59.472;18.048;2023-04-03T09:31:37;2.60;99.90
10282;DHT22;5186;59.472;18.048;2023-04-03T09:34:35;2.70;99.90
10282;DHT22;5186;59.472;18.048;2023-04-03T09:37:03;2.70;99.90
10282;DHT22;5186;59.472;18.048;2023-04-03T09:39:32;2.80;99.90
10282;DHT22;5186;59.472;18.048;2023-04-03T09:42:21;2.90;99.90
10282;DHT22;5186;59.472;18.048;2023-04-03T09:45:00;2.90;99.90
10282;DHT22;5186;59.472;18.048;2023-04-03T09:47:32;3.00;99.90
10282;DHT22;5186;59.472;18.048;2023-04-03T09:52:48;3.10;99.90
10282;DHT22;5186;59.472;18.048;2023-04-03T09:55:15;3.10;99.90
10282;DHT22;5186;59.472;18.048;2023-04-03T09:57:41;3.20;99.90
10282;DHT22;5186;59.472;18.048;2023-04-03T10:02:44;3.30;99.90
10282;DHT22;5186;59.472;18.048;2023-04-03T10:05:34;3.30;99.90
10282;DHT22;5186;59.472;18.048;2023-04-03T10:10:48;3.40;99.90
10282;DHT22;5186;59.472;18.048;2023-04-03T10:13:29;3.50;99.90
10282;DHT22;5186;59.472;18.048;2023-04-03T10:18:49;3.50;99.90
10282;DHT22;5186;59.472;18.048;2023-04-03T10:21:40;3.50;99.90
10282;DHT22;5186;59.472;18.048;2023-04-03T10:24:10;3.50;99.90
10282;DHT22;5186;59.472;18.048;2023-04-03T10:27:02;3.50;99.90
10282;DHT22;5186;59.472;18.048;2023-04-03T10:35:06;3.70;99.90
10282;DHT22;5186;59.472;18.048;2023-04-03T10:37:51;3.70;99.90
10282;DHT22;5186;59.472;18.048;2023-04-03T10:40:30;3.70;99.90
10282;DHT22;5186;59.472;18.048;2023-04-03T10:45:55;3.80;99.90
10282;DHT22;5186;59.472;18.048;2023-04-03T10:51:42;3.90;99.90
10282;DHT22;5186;59.472;18.048;2023-04-03T10:54:15;3.90;99.90
10282;DHT22;5186;59.472;18.048;2023-04-03T10:56:48;3.90;99.90
10282;DHT22;5186;59.472;18.048;2023-04-03T10:59:25;3.90;99.90
10282;DHT22;5186;59.472;18.048;2023-04-03T11:01:59;3.90;99.90
10282;DHT22;5186;59.472;18.048;2023-04-03T11:04:28;4.00;99.90
10282;DHT22;5186;59.472;18.048;2023-04-03T11:07:22;4.00;99.90
10282;DHT22;5186;59.472;18.048;2023-04-03T11:09:53;4.00;99.90
10282;DHT22;5186;59.472;18.048;2023-04-03T11:12:26;4.00;99.90
10282;DHT22;5186;59.472;18.048;2023-04-03T11:14:55;4.00;99.90
10282;DHT22;5186;59.472;18.048;2023-04-03T11:17:35;4.10;99.90
10282;DHT22;5186;59.472;18.048;2023-04-03T11:20:19;4.10;99.90
10282;DHT22;5186;59.472;18.048;2023-04-03T11:22:57;4.10;99.90
10282;DHT22;5186;59.472;18.048;2023-04-03T11:25:25;4.20;99.90
10282;DHT22;5186;59.472;18.048;2023-04-03T11:27:58;4.20;99.90
10282;DHT22;5186;59.472;18.048;2023-04-03T11:30:43;4.30;99.90
10282;DHT22;5186;59.472;18.048;2023-04-03T11:33:32;4.30;99.90
10282;DHT22;5186;59.472;18.048;2023-04-03T11:36:08;4.30;99.90
10282;DHT22;5186;59.472;18.048;2023-04-03T11:38:37;4.40;99.90
10282;DHT22;5186;59.472;18.048;2023-04-03T11:41:07;4.40;99.90
10282;DHT22;5186;59.472;18.048;2023-04-03T11:43:36;4.40;99.90
10282;DHT22;5186;59.472;18.048;2023-04-03T11:46:06;4.40;99.90
10282;DHT22;5186;59.472;18.048;2023-04-03T11:51:05;4.50;99.90
10282;DHT22;5186;59.472;18.048;2023-04-03T11:53:48;4.50;99.90
10282;DHT22;5186;59.472;18.048;2023-04-03T12:04:14;4.60;99.90
10282;DHT22;5186;59.472;18.048;2023-04-03T12:06:42;4.60;99.90
10282;DHT22;5186;59.472;18.048;2023-04-03T12:11:53;4.80;99.90
10282;DHT22;5186;59.472;18.048;2023-04-03T12:14:22;4.70;99.90
10282;DHT22;5186;59.472;18.048;2023-04-03T12:16:49;4.70;99.90
10282;DHT22;5186;59.472;18.048;2023-04-03T12:19:37;4.80;99.90
10282;DHT22;5186;59.472;18.048;2023-04-03T12:22:08;4.90;99.90
10282;DHT22;5186;59.472;18.048;2023-04-03T12:24:36;4.80;99.90
10282;DHT22;5186;59.472;18.048;2023-04-03T12:27:34;4.80;99.90
10282;DHT22;5186;59.472;18.048;2023-04-03T12:46:07;5.00;99.90
10282;DHT22;5186;59.472;18.048;2023-04-03T12:51:19;5.10;99.90
10282;DHT22;5186;59.472;18.048;2023-04-03T12:53:47;5.10;99.90
10282;DHT22;5186;59.472;18.048;2023-04-03T12:56:23;5.10;99.90
10282;DHT22;5186;59.472;18.048;2023-04-03T12:58:51;5.10;99.90
10282;DHT22;5186;59.472;18.048;2023-04-03T13:01:20;5.10;99.90
10282;DHT22;5186;59.472;18.048;2023-04-03T13:03:55;5.20;99.90
10282;DHT22;5186;59.472;18.048;2023-04-03T13:06:32;5.20;99.90
10282;DHT22;5186;59.472;18.048;2023-04-03T13:09:00;5.20;99.90
10282;DHT22;5186;59.472;18.048;2023-04-03T13:11:36;5.20;99.90
10282;DHT22;5186;59.472;18.048;2023-04-03T13:14:12;5.30;99.90
10282;DHT22;5186;59.472;18.048;2023-04-03T13:16:39;5.30;99.90
10282;DHT22;5186;59.472;18.048;2023-04-03T13:19:14;5.30;99.90
10282;DHT22;5186;59.472;18.048;2023-04-03T13:21:41;5.30;99.90
10282;DHT22;5186;59.472;18.048;2023-04-03T13:24:08;5.40;99.90
10282;DHT22;5186;59.472;18.048;2023-04-03T13:26:34;5.40;99.90
10282;DHT22;5186;59.472;18.048;2023-04-03T13:29:07;5.30;99.90
10282;DHT22;5186;59.472;18.048;2023-04-03T13:31:35;5.40;99.90
10282;DHT22;5186;59.472;18.048;2023-04-03T13:34:17;5.40;99.90
10282;DHT22;5186;59.472;18.048;2023-04-03T13:36:46;5.40;99.90
10282;DHT22;5186;59.472;18.048;2023-04-03T13:41:56;5.40;99.90
10282;DHT22;5186;59.472;18.048;2023-04-03T13:49:41;5.40;99.90
10282;DHT22;5186;59.472;18.048;2023-04-03T13:52:30;5.40;99.90
10282;DHT22;5186;59.472;18.048;2023-04-03T13:55:16;5.40;99.90
10282;DHT22;5186;59.472;18.048;2023-04-03T13:57:56;5.40;99.90
10282;DHT22;5186;59.472;18.048;2023-04-03T14:02:54;5.50;99.90
10282;DHT22;5186;59.472;18.048;2023-04-03T14:05:22;5.50;99.90
10282;DHT22;5186;59.472;18.048;2023-04-03T14:07:50;5.50;99.90
10282;DHT22;5186;59.472;18.048;2023-04-03T14:10:16;5.60;99.90
10282;DHT22;5186;59.472;18.048;2023-04-03T14:12:41;5.70;99.90
10282;DHT22;5186;59.472;18.048;2023-04-03T14:15:23;5.70;99.90
10282;DHT22;5186;59.472;18.048;2023-04-03T14:17:50;5.70;99.90
10282;DHT22;5186;59.472;18.048;2023-04-03T14:20:20;5.70;99.90
10282;DHT22;5186;59.472;18.048;2023-04-03T14:22:47;5.70;99.90
10282;DHT22;5186;59.472;18.048;2023-04-03T14:25:15;5.70;99.90
10282;DHT22;5186;59.472;18.048;2023-04-03T14:27:46;5.70;99.90
10282;DHT22;5186;59.472;18.048;2023-04-03T14:30:16;5.70;99.90
10282;DHT22;5186;59.472;18.048;2023-04-03T14:32:42;5.70;99.90
10282;DHT22;5186;59.472;18.048;2023-04-03T14:35:08;5.80;99.90
10282;DHT22;5186;59.472;18.048;2023-04-03T14:37:34;5.80;99.90
10282;DHT22;5186;59.472;18.048;2023-04-03T14:40:01;5.90;99.90
10282;DHT22;5186;59.472;18.048;2023-04-03T14:42:34;5.80;99.90
10282;DHT22;5186;59.472;18.048;2023-04-03T14:45:03;5.80;99.90
10282;DHT22;5186;59.472;18.048;2023-04-03T14:47:29;5.80;99.90
10282;DHT22;5186;59.472;18.048;2023-04-03T14:49:56;5.80;99.90
10282;DHT22;5186;59.472;18.048;2023-04-03T14:52:28;5.80;99.90
10282;DHT22;5186;59.472;18.048;2023-04-03T14:54:55;5.80;99.90
10282;DHT22;5186;59.472;18.048;2023-04-03T14:57:23;5.80;99.90
10282;DHT22;5186;59.472;18.048;2023-04-03T14:59:50;5.80;99.90
10282;DHT22;5186;59.472;18.048;2023-04-03T15:02:33;5.80;99.90
10282;DHT22;5186;59.472;18.048;2023-04-03T15:05:00;5.80;99.90
10282;DHT22;5186;59.472;18.048;2023-04-03T15:07:29;5.80;99.90
10282;DHT22;5186;59.472;18.048;2023-04-03T15:09:55;5.80;99.90
10282;DHT22;5186;59.472;18.048;2023-04-03T15:12:25;5.80;99.90
10282;DHT22;5186;59.472;18.048;2023-04-03T15:14:50;5.70;99.90
10282;DHT22;5186;59.472;18.048;2023-04-03T15:17:19;5.70;99.90
10282;DHT22;5186;59.472;18.048;2023-04-03T15:19:45;5.70;99.90
10282;DHT22;5186;59.472;18.048;2023-04-03T15:22:19;5.70;99.90
10282;DHT22;5186;59.472;18.048;2023-04-03T15:24:45;5.70;99.90
10282;DHT22;5186;59.472;18.048;2023-04-03T15:27:12;5.70;99.90
10282;DHT22;5186;59.472;18.048;2023-04-03T15:29:39;5.70;99.90
10282;DHT22;5186;59.472;18.048;2023-04-03T15:32:06;5.60;99.90
10282;DHT22;5186;59.472;18.048;2023-04-03T15:34:32;5.70;99.90
10282;DHT22;5186;59.472;18.048;2023-04-03T15:36:57;5.60;99.90
10282;DHT22;5186;59.472;18.048;2023-04-03T15:39:25;5.60;99.90
10282;DHT22;5186;59.472;18.048;2023-04-03T15:41:51;5.60;99.90
10282;DHT22;5186;59.472;18.048;2023-04-03T15:44:17;5.70;99.90
10282;DHT22;5186;59.472;18.048;2023-04-03T15:46:45;5.60;99.90
10282;DHT22;5186;59.472;18.048;2023-04-03T15:49:11;5.60;99.90
10282;DHT22;5186;59.472;18.048;2023-04-03T15:51:37;5.60;99.90
10282;DHT22;5186;59.472;18.048;2023-04-03T15:54:03;5.60;99.90
10282;DHT22;5186;59.472;18.048;2023-04-03T15:56:28;5.60;99.90
10282;DHT22;5186;59.472;18.048;2023-04-03T15:58:54;5.50;99.90
10282;DHT22;5186;59.472;18.048;2023-04-03T16:01:19;5.50;99.90
10282;DHT22;5186;59.472;18.048;2023-04-03T16:03:45;5.50;99.90
10282;DHT22;5186;59.472;18.048;2023-04-03T16:06:15;5.50;99.90
10282;DHT22;5186;59.472;18.048;2023-04-03T16:08:42;5.40;99.90
10282;DHT22;5186;59.472;18.048;2023-04-03T16:11:08;5.40;99.90
10282;DHT22;5186;59.472;18.048;2023-04-03T16:13:33;5.30;99.90
10282;DHT22;5186;59.472;18.048;2023-04-03T16:16:00;5.30;99.90
10282;DHT22;5186;59.472;18.048;2023-04-03T16:18:27;5.30;99.90
10282;DHT22;5186;59.472;18.048;2023-04-03T16:20:52;5.30;99.90
10282;DHT22;5186;59.472;18.048;2023-04-03T16:23:18;5.20;99.90
10282;DHT22;5186;59.472;18.048;2023-04-03T16:25:44;5.20;99.90
10282;DHT22;5186;59.472;18.048;2023-04-03T16:28:15;5.20;99.90
10282;DHT22;5186;59.472;18.048;2023-04-03T16:30:46;5.10;99.90
10282;DHT22;5186;59.472;18.048;2023-04-03T16:33:12;5.10;99.90
10282;DHT22;5186;59.472;18.048;2023-04-03T16:35:39;5.10;99.90
10282;DHT22;5186;59.472;18.048;2023-04-03T16:38:05;5.10;99.90
10282;DHT22;5186;59.472;18.048;2023-04-03T16:40:31;5.00;99.90
10282;DHT22;5186;59.472;18.048;2023-04-03T16:42:56;5.00;99.90
10282;DHT22;5186;59.472;18.048;2023-04-03T16:45:22;4.90;99.90
10282;DHT22;5186;59.472;18.048;2023-04-03T16:47:47;4.90;99.90
10282;DHT22;5186;59.472;18.048;2023-04-03T16:50:13;4.80;99.90
10282;DHT22;5186;59.472;18.048;2023-04-03T16:52:39;4.80;99.90
10282;DHT22;5186;59.472;18.048;2023-04-03T16:55:05;4.70;99.90
10282;DHT22;5186;59.472;18.048;2023-04-03T16:57:31;4.70;99.90
10282;DHT22;5186;59.472;18.048;2023-04-03T16:59:56;4.60;99.90
10282;DHT22;5186;59.472;18.048;2023-04-03T17:02:23;4.60;99.90
10282;DHT22;5186;59.472;18.048;2023-04-03T17:04:50;4.60;99.90
10282;DHT22;5186;59.472;18.048;2023-04-03T17:07:17;4.50;99.90